sensor_id;sensor_type;location;lat;lon;timestamp;P1;durP1;ratioP1;P2;durP2;ratioP2
20166;SDS011;10243;49.118;8.508;2022-11-13T00:01:39;49.43;;;19.40;;
20166;SDS011;10243;49.118;8.508;2022-11-13T00:05:01;34.43;;;17.63;;
20166;SDS011;10243;49.118;8.508;2022-11-13T00:08:22;38.57;;;15.80;;
20166;SDS011;10243;49.118;8.508;2022-11-13T00:11:43;27.03;;;16.27;;
20166;SDS011;10243;49.118;8.508;2022-11-13T00:15:04;32.53;;;14.73;;
20166;SDS011;10243;49.118;8.508;2022-11-13T00:18:25;23.90;;;15.90;;
20166;SDS011;10243;49.118;8.508;2022-11-13T00:21:45;32.50;;;15.97;;
20166;SDS011;10243;49.118;8.508;2022-11-13T00:25:08;21.00;;;15.10;;
20166;SDS011;10243;49.118;8.508;2022-11-13T00:28:28;22.43;;;14.97;;
20166;SDS011;10243;49.118;8.508;2022-11-13T00:31:49;22.53;;;15.63;;
20166;SDS011;10243;49.118;8.508;2022-11-13T00:35:09;25.73;;;15.23;;
20166;SDS011;10243;49.118;8.508;2022-11-13T00:38:30;21.00;;;15.37;;
20166;SDS011;10243;49.118;8.508;2022-11-13T00:41:52;36.30;;;15.50;;
20166;SDS011;10243;49.118;8.508;2022-11-13T00:45:12;29.73;;;16.10;;
20166;SDS011;10243;49.118;8.508;2022-11-13T00:48:33;26.53;;;15.27;;
20166;SDS011;10243;49.118;8.508;2022-11-13T00:51:54;22.03;;;15.03;;
20166;SDS011;10243;49.118;8.508;2022-11-13T00:55:15;26.50;;;15.93;;
20166;SDS011;10243;49.118;8.508;2022-11-13T00:58:40;21.07;;;15.63;;
20166;SDS011;10243;49.118;8.508;2022-11-13T01:02:00;26.93;;;17.23;;
20166;SDS011;10243;49.118;8.508;2022-11-13T01:05:21;26.90;;;16.10;;
20166;SDS011;10243;49.118;8.508;2022-11-13T01:08:41;27.13;;;16.60;;
20166;SDS011;10243;49.118;8.508;2022-11-13T01:12:02;31.77;;;17.00;;
20166;SDS011;10243;49.118;8.508;2022-11-13T01:15:24;29.50;;;16.50;;
20166;SDS011;10243;49.118;8.508;2022-11-13T01:18:45;21.70;;;15.63;;
20166;SDS011;10243;49.118;8.508;2022-11-13T01:22:06;24.03;;;15.77;;
20166;SDS011;10243;49.118;8.508;2022-11-13T01:25:27;23.80;;;16.87;;
20166;SDS011;10243;49.118;8.508;2022-11-13T01:28:48;21.23;;;15.37;;
20166;SDS011;10243;49.118;8.508;2022-11-13T01:32:10;22.33;;;16.30;;
20166;SDS011;10243;49.118;8.508;2022-11-13T01:35:30;27.13;;;16.47;;
20166;SDS011;10243;49.118;8.508;2022-11-13T01:38:51;24.30;;;15.90;;
20166;SDS011;10243;49.118;8.508;2022-11-13T01:42:12;26.70;;;16.60;;
20166;SDS011;10243;49.118;8.508;2022-11-13T01:49:26;30.37;;;16.83;;
20166;SDS011;10243;49.118;8.508;2022-11-13T01:52:49;39.63;;;17.13;;
20166;SDS011;10243;49.118;8.508;2022-11-13T01:56:10;25.57;;;17.43;;
20166;SDS011;10243;49.118;8.508;2022-11-13T01:59:31;29.00;;;17.53;;
20166;SDS011;10243;49.118;8.508;2022-11-13T02:02:57;28.60;;;17.87;;
20166;SDS011;10243;49.118;8.508;2022-11-13T02:06:19;26.47;;;16.73;;
20166;SDS011;10243;49.118;8.508;2022-11-13T02:09:41;29.80;;;17.70;;
20166;SDS011;10243;49.118;8.508;2022-11-13T02:13:04;33.37;;;17.33;;
20166;SDS011;10243;49.118;8.508;2022-11-13T02:16:24;43.50;;;17.37;;
20166;SDS011;10243;49.118;8.508;2022-11-13T02:19:46;43.00;;;17.43;;
20166;SDS011;10243;49.118;8.508;2022-11-13T02:23:13;36.60;;;17.57;;
20166;SDS011;10243;49.118;8.508;2022-11-13T02:26:41;35.03;;;16.63;;
20166;SDS011;10243;49.118;8.508;2022-11-13T02:30:13;28.90;;;15.90;;
20166;SDS011;10243;49.118;8.508;2022-11-13T02:33:34;45.70;;;16.23;;
20166;SDS011;10243;49.118;8.508;2022-11-13T02:36:55;25.40;;;15.27;;
20166;SDS011;10243;49.118;8.508;2022-11-13T02:40:15;24.27;;;15.63;;
20166;SDS011;10243;49.118;8.508;2022-11-13T02:43:38;21.80;;;15.13;;
20166;SDS011;10243;49.118;8.508;2022-11-13T02:46:59;27.43;;;14.83;;
20166;SDS011;10243;49.118;8.508;2022-11-13T02:50:19;29.47;;;15.53;;
20166;SDS011;10243;49.118;8.508;2022-11-13T02:53:39;21.87;;;15.30;;
20166;SDS011;10243;49.118;8.508;2022-11-13T02:57:00;61.70;;;15.93;;
20166;SDS011;10243;49.118;8.508;2022-11-13T03:00:22;80.70;;;16.00;;
20166;SDS011;10243;49.118;8.508;2022-11-13T03:03:42;81.53;;;17.57;;
20166;SDS011;10243;49.118;8.508;2022-11-13T03:07:03;74.20;;;17.07;;
20166;SDS011;10243;49.118;8.508;2022-11-13T03:10:23;145.03;;;17.73;;
20166;SDS011;10243;49.118;8.508;2022-11-13T03:13:44;106.67;;;17.63;;
20166;SDS011;10243;49.118;8.508;2022-11-13T03:17:06;195.93;;;19.60;;
20166;SDS011;10243;49.118;8.508;2022-11-13T03:20:26;102.20;;;17.37;;
20166;SDS011;10243;49.118;8.508;2022-11-13T03:23:47;88.47;;;16.50;;
20166;SDS011;10243;49.118;8.508;2022-11-13T03:27:07;42.83;;;15.40;;
20166;SDS011;10243;49.118;8.508;2022-11-13T03:30:28;84.30;;;17.60;;
20166;SDS011;10243;49.118;8.508;2022-11-13T03:33:52;105.63;;;17.03;;
20166;SDS011;10243;49.118;8.508;2022-11-13T03:37:13;158.80;;;17.33;;
20166;SDS011;10243;49.118;8.508;2022-11-13T03:40:33;159.20;;;19.37;;
20166;SDS011;10243;49.118;8.508;2022-11-13T03:43:54;152.93;;;17.10;;
20166;SDS011;10243;49.118;8.508;2022-11-13T03:47:14;182.70;;;17.87;;
20166;SDS011;10243;49.118;8.508;2022-11-13T03:50:36;248.37;;;20.37;;
20166;SDS011;10243;49.118;8.508;2022-11-13T03:53:56;278.17;;;21.90;;
20166;SDS011;10243;49.118;8.508;2022-11-13T03:57:18;262.00;;;19.80;;
20166;SDS011;10243;49.118;8.508;2022-11-13T04:00:39;274.97;;;19.73;;
20166;SDS011;10243;49.118;8.508;2022-11-13T04:04:00;197.20;;;18.97;;
20166;SDS011;10243;49.118;8.508;2022-11-13T04:07:22;211.40;;;19.30;;
20166;SDS011;10243;49.118;8.508;2022-11-13T04:10:42;171.97;;;19.50;;
20166;SDS011;10243;49.118;8.508;2022-11-13T04:14:03;235.00;;;19.33;;
20166;SDS011;10243;49.118;8.508;2022-11-13T04:17:24;242.80;;;21.60;;
20166;SDS011;10243;49.118;8.508;2022-11-13T04:20:44;198.90;;;20.60;;
20166;SDS011;10243;49.118;8.508;2022-11-13T04:24:06;204.00;;;19.53;;
20166;SDS011;10243;49.118;8.508;2022-11-13T04:27:27;127.87;;;18.87;;
20166;SDS011;10243;49.118;8.508;2022-11-13T04:30:48;60.93;;;17.87;;
20166;SDS011;10243;49.118;8.508;2022-11-13T04:34:08;148.57;;;20.03;;
20166;SDS011;10243;49.118;8.508;2022-11-13T04:37:29;134.30;;;19.87;;
20166;SDS011;10243;49.118;8.508;2022-11-13T04:40:51;230.03;;;22.10;;
20166;SDS011;10243;49.118;8.508;2022-11-13T04:44:32;59.73;;;18.53;;
20166;SDS011;10243;49.118;8.508;2022-11-13T04:47:51;54.10;;;19.37;;
20166;SDS011;10243;49.118;8.508;2022-11-13T04:51:12;92.97;;;21.23;;
20166;SDS011;10243;49.118;8.508;2022-11-13T04:54:33;45.83;;;20.27;;
20166;SDS011;10243;49.118;8.508;2022-11-13T04:57:55;57.23;;;19.27;;
20166;SDS011;10243;49.118;8.508;2022-11-13T05:01:16;55.03;;;20.53;;
20166;SDS011;10243;49.118;8.508;2022-11-13T05:04:36;73.33;;;19.63;;
20166;SDS011;10243;49.118;8.508;2022-11-13T05:07:56;43.40;;;19.03;;
20166;SDS011;10243;49.118;8.508;2022-11-13T05:11:17;70.80;;;20.90;;
20166;SDS011;10243;49.118;8.508;2022-11-13T05:14:39;65.33;;;20.83;;
20166;SDS011;10243;49.118;8.508;2022-11-13T05:17:59;54.77;;;20.10;;
20166;SDS011;10243;49.118;8.508;2022-11-13T05:21:20;50.57;;;20.40;;
20166;SDS011;10243;49.118;8.508;2022-11-13T05:24:41;61.97;;;21.40;;
20166;SDS011;10243;49.118;8.508;2022-11-13T05:28:01;79.07;;;21.13;;
20166;SDS011;10243;49.118;8.508;2022-11-13T05:31:23;88.27;;;21.93;;
20166;SDS011;10243;49.118;8.508;2022-11-13T05:34:44;60.53;;;20.87;;
20166;SDS011;10243;49.118;8.508;2022-11-13T05:38:05;67.37;;;21.37;;
20166;SDS011;10243;49.118;8.508;2022-11-13T05:41:25;65.33;;;21.53;;
20166;SDS011;10243;49.118;8.508;2022-11-13T05:44:46;62.43;;;20.87;;
20166;SDS011;10243;49.118;8.508;2022-11-13T05:48:08;62.73;;;22.03;;
20166;SDS011;10243;49.118;8.508;2022-11-13T05:51:29;58.83;;;21.77;;
20166;SDS011;10243;49.118;8.508;2022-11-13T05:54:51;62.57;;;20.00;;
20166;SDS011;10243;49.118;8.508;2022-11-13T05:58:12;57.50;;;20.77;;
20166;SDS011;10243;49.118;8.508;2022-11-13T06:01:33;63.40;;;20.40;;
20166;SDS011;10243;49.118;8.508;2022-11-13T06:04:56;79.10;;;21.27;;
20166;SDS011;10243;49.118;8.508;2022-11-13T06:08:16;65.17;;;20.93;;
20166;SDS011;10243;49.118;8.508;2022-11-13T06:11:37;60.80;;;21.13;;
20166;SDS011;10243;49.118;8.508;2022-11-13T06:14:57;63.50;;;21.40;;
20166;SDS011;10243;49.118;8.508;2022-11-13T06:18:19;55.20;;;22.00;;
20166;SDS011;10243;49.118;8.508;2022-11-13T06:21:42;99.63;;;23.20;;
20166;SDS011;10243;49.118;8.508;2022-11-13T06:25:02;69.10;;;21.13;;
20166;SDS011;10243;49.118;8.508;2022-11-13T06:28:23;51.67;;;19.97;;
20166;SDS011;10243;49.118;8.508;2022-11-13T06:31:44;44.07;;;20.67;;
20166;SDS011;10243;49.118;8.508;2022-11-13T06:35:05;44.97;;;20.60;;
20166;SDS011;10243;49.118;8.508;2022-11-13T06:38:28;42.93;;;19.47;;
20166;SDS011;10243;49.118;8.508;2022-11-13T06:41:49;31.47;;;17.50;;
20166;SDS011;10243;49.118;8.508;2022-11-13T06:45:10;42.27;;;18.77;;
20166;SDS011;10243;49.118;8.508;2022-11-13T06:48:31;37.77;;;19.07;;
20166;SDS011;10243;49.118;8.508;2022-11-13T06:51:51;51.72;;;25.70;;
20166;SDS011;10243;49.118;8.508;2022-11-13T06:55:13;41.03;;;20.63;;
20166;SDS011;10243;49.118;8.508;2022-11-13T06:58:33;35.17;;;19.37;;
20166;SDS011;10243;49.118;8.508;2022-11-13T07:01:54;38.63;;;18.80;;
20166;SDS011;10243;49.118;8.508;2022-11-13T07:05:14;34.03;;;17.00;;
20166;SDS011;10243;49.118;8.508;2022-11-13T07:08:35;82.53;;;19.30;;
20166;SDS011;10243;49.118;8.508;2022-11-13T07:12:02;101.80;;;16.37;;
20166;SDS011;10243;49.118;8.508;2022-11-13T07:15:23;88.53;;;19.00;;
20166;SDS011;10243;49.118;8.508;2022-11-13T07:18:49;78.63;;;16.33;;
20166;SDS011;10243;49.118;8.508;2022-11-13T07:22:10;49.03;;;16.27;;
20166;SDS011;10243;49.118;8.508;2022-11-13T07:25:33;54.70;;;16.37;;
20166;SDS011;10243;49.118;8.508;2022-11-13T07:28:55;39.93;;;14.37;;
20166;SDS011;10243;49.118;8.508;2022-11-13T07:32:19;42.90;;;13.70;;
20166;SDS011;10243;49.118;8.508;2022-11-13T07:35:39;53.80;;;14.80;;
20166;SDS011;10243;49.118;8.508;2022-11-13T07:39:00;71.27;;;13.40;;
20166;SDS011;10243;49.118;8.508;2022-11-13T07:42:24;103.07;;;14.87;;
20166;SDS011;10243;49.118;8.508;2022-11-13T07:45:46;31.33;;;13.47;;
20166;SDS011;10243;49.118;8.508;2022-11-13T07:49:12;33.17;;;13.53;;
20166;SDS011;10243;49.118;8.508;2022-11-13T07:52:32;32.90;;;14.63;;
20166;SDS011;10243;49.118;8.508;2022-11-13T07:55:53;46.23;;;15.53;;
20166;SDS011;10243;49.118;8.508;2022-11-13T07:59:29;35.70;;;15.07;;
20166;SDS011;10243;49.118;8.508;2022-11-13T08:02:51;59.77;;;15.07;;
20166;SDS011;10243;49.118;8.508;2022-11-13T08:06:14;33.27;;;14.73;;
20166;SDS011;10243;49.118;8.508;2022-11-13T08:09:35;39.73;;;14.43;;
20166;SDS011;10243;49.118;8.508;2022-11-13T08:12:56;22.20;;;13.03;;
20166;SDS011;10243;49.118;8.508;2022-11-13T08:16:18;22.43;;;14.27;;
20166;SDS011;10243;49.118;8.508;2022-11-13T08:19:42;31.87;;;14.63;;
20166;SDS011;10243;49.118;8.508;2022-11-13T08:23:03;33.10;;;13.70;;
20166;SDS011;10243;49.118;8.508;2022-11-13T08:26:23;21.13;;;12.83;;
20166;SDS011;10243;49.118;8.508;2022-11-13T08:29:44;26.47;;;13.00;;
20166;SDS011;10243;49.118;8.508;2022-11-13T08:33:04;22.57;;;12.87;;
20166;SDS011;10243;49.118;8.508;2022-11-13T08:36:26;20.53;;;13.03;;
20166;SDS011;10243;49.118;8.508;2022-11-13T08:39:47;24.10;;;12.67;;
20166;SDS011;10243;49.118;8.508;2022-11-13T08:43:07;19.07;;;12.33;;
20166;SDS011;10243;49.118;8.508;2022-11-13T08:46:28;21.73;;;12.90;;
20166;SDS011;10243;49.118;8.508;2022-11-13T08:49:48;17.63;;;12.97;;
20166;SDS011;10243;49.118;8.508;2022-11-13T08:53:10;19.43;;;13.80;;
20166;SDS011;10243;49.118;8.508;2022-11-13T08:56:30;29.37;;;13.87;;
20166;SDS011;10243;49.118;8.508;2022-11-13T08:59:51;22.83;;;13.80;;
20166;SDS011;10243;49.118;8.508;2022-11-13T09:03:11;23.20;;;12.80;;
20166;SDS011;10243;49.118;8.508;2022-11-13T09:06:32;20.93;;;13.83;;
20166;SDS011;10243;49.118;8.508;2022-11-13T09:09:54;20.10;;;13.93;;
20166;SDS011;10243;49.118;8.508;2022-11-13T09:13:14;20.23;;;14.03;;
20166;SDS011;10243;49.118;8.508;2022-11-13T09:16:35;16.43;;;12.13;;
20166;SDS011;10243;49.118;8.508;2022-11-13T09:19:56;15.67;;;11.50;;
20166;SDS011;10243;49.118;8.508;2022-11-13T09:23:16;19.23;;;11.83;;
20166;SDS011;10243;49.118;8.508;2022-11-13T09:26:38;23.33;;;12.47;;
20166;SDS011;10243;49.118;8.508;2022-11-13T09:29:59;16.60;;;11.47;;
20166;SDS011;10243;49.118;8.508;2022-11-13T09:33:19;19.53;;;12.83;;
20166;SDS011;10243;49.118;8.508;2022-11-13T09:36:40;19.73;;;13.30;;
20166;SDS011;10243;49.118;8.508;2022-11-13T09:40:00;20.13;;;14.10;;
20166;SDS011;10243;49.118;8.508;2022-11-13T09:43:24;19.03;;;13.10;;
20166;SDS011;10243;49.118;8.508;2022-11-13T09:46:50;22.20;;;14.20;;
20166;SDS011;10243;49.118;8.508;2022-11-13T09:50:16;18.87;;;13.23;;
20166;SDS011;10243;49.118;8.508;2022-11-13T09:53:39;15.90;;;12.20;;
20166;SDS011;10243;49.118;8.508;2022-11-13T09:57:01;17.10;;;13.13;;
20166;SDS011;10243;49.118;8.508;2022-11-13T10:00:30;14.43;;;11.93;;
20166;SDS011;10243;49.118;8.508;2022-11-13T10:03:55;15.33;;;12.50;;
20166;SDS011;10243;49.118;8.508;2022-11-13T10:07:26;22.23;;;12.37;;
20166;SDS011;10243;49.118;8.508;2022-11-13T10:10:56;17.87;;;12.37;;
20166;SDS011;10243;49.118;8.508;2022-11-13T10:14:25;17.00;;;11.97;;
20166;SDS011;10243;49.118;8.508;2022-11-13T10:17:50;19.07;;;13.77;;
20166;SDS011;10243;49.118;8.508;2022-11-13T10:21:19;14.90;;;12.67;;
20166;SDS011;10243;49.118;8.508;2022-11-13T10:24:50;13.90;;;11.83;;
20166;SDS011;10243;49.118;8.508;2022-11-13T10:28:13;16.50;;;12.27;;
20166;SDS011;10243;49.118;8.508;2022-11-13T10:31:40;16.23;;;12.53;;
20166;SDS011;10243;49.118;8.508;2022-11-13T10:35:08;17.70;;;11.13;;
20166;SDS011;10243;49.118;8.508;2022-11-13T10:38:42;15.57;;;11.67;;
20166;SDS011;10243;49.118;8.508;2022-11-13T10:42:03;18.80;;;12.50;;
20166;SDS011;10243;49.118;8.508;2022-11-13T10:45:24;20.17;;;13.00;;
20166;SDS011;10243;49.118;8.508;2022-11-13T10:48:45;19.13;;;12.53;;
20166;SDS011;10243;49.118;8.508;2022-11-13T10:52:15;14.20;;;12.27;;
20166;SDS011;10243;49.118;8.508;2022-11-13T10:55:38;16.87;;;12.10;;
20166;SDS011;10243;49.118;8.508;2022-11-13T10:59:00;17.27;;;12.53;;
20166;SDS011;10243;49.118;8.508;2022-11-13T11:02:22;19.57;;;13.47;;
20166;SDS011;10243;49.118;8.508;2022-11-13T11:05:50;19.43;;;13.87;;
20166;SDS011;10243;49.118;8.508;2022-11-13T11:09:15;19.13;;;14.27;;
20166;SDS011;10243;49.118;8.508;2022-11-13T11:12:39;18.03;;;13.77;;
20166;SDS011;10243;49.118;8.508;2022-11-13T11:16:00;20.40;;;14.73;;
20166;SDS011;10243;49.118;8.508;2022-11-13T11:19:24;18.97;;;13.97;;
20166;SDS011;10243;49.118;8.508;2022-11-13T11:22:47;19.43;;;13.27;;
20166;SDS011;10243;49.118;8.508;2022-11-13T11:26:14;21.13;;;14.50;;
20166;SDS011;10243;49.118;8.508;2022-11-13T11:29:42;21.30;;;14.47;;
20166;SDS011;10243;49.118;8.508;2022-11-13T11:33:08;21.33;;;13.80;;
20166;SDS011;10243;49.118;8.508;2022-11-13T11:36:33;16.50;;;12.97;;
20166;SDS011;10243;49.118;8.508;2022-11-13T11:40:00;19.00;;;13.67;;
20166;SDS011;10243;49.118;8.508;2022-11-13T11:43:32;18.70;;;13.83;;
20166;SDS011;10243;49.118;8.508;2022-11-13T11:46:58;18.60;;;13.13;;
20166;SDS011;10243;49.118;8.508;2022-11-13T11:50:22;19.53;;;13.63;;
20166;SDS011;10243;49.118;8.508;2022-11-13T11:53:56;17.73;;;12.33;;
20166;SDS011;10243;49.118;8.508;2022-11-13T11:57:44;16.33;;;12.47;;
20166;SDS011;10243;49.118;8.508;2022-11-13T12:01:12;18.77;;;13.10;;
20166;SDS011;10243;49.118;8.508;2022-11-13T12:04:47;17.40;;;12.97;;
20166;SDS011;10243;49.118;8.508;2022-11-13T12:08:21;18.00;;;13.30;;
20166;SDS011;10243;49.118;8.508;2022-11-13T12:11:50;16.97;;;12.27;;
20166;SDS011;10243;49.118;8.508;2022-11-13T12:15:17;14.33;;;11.97;;
20166;SDS011;10243;49.118;8.508;2022-11-13T12:18:47;22.13;;;12.30;;
20166;SDS011;10243;49.118;8.508;2022-11-13T12:22:18;16.80;;;12.50;;
20166;SDS011;10243;49.118;8.508;2022-11-13T12:25:48;14.87;;;11.77;;
20166;SDS011;10243;49.118;8.508;2022-11-13T12:29:15;12.23;;;10.87;;
20166;SDS011;10243;49.118;8.508;2022-11-13T12:33:00;15.27;;;12.07;;
20166;SDS011;10243;49.118;8.508;2022-11-13T12:36:28;15.73;;;12.17;;
20166;SDS011;10243;49.118;8.508;2022-11-13T12:39:50;16.60;;;12.03;;
20166;SDS011;10243;49.118;8.508;2022-11-13T12:43:28;15.77;;;11.20;;
20166;SDS011;10243;49.118;8.508;2022-11-13T12:46:56;15.23;;;10.97;;
20166;SDS011;10243;49.118;8.508;2022-11-13T12:50:21;18.27;;;12.00;;
20166;SDS011;10243;49.118;8.508;2022-11-13T12:53:46;17.50;;;11.93;;
20166;SDS011;10243;49.118;8.508;2022-11-13T12:57:21;17.80;;;12.50;;
20166;SDS011;10243;49.118;8.508;2022-11-13T13:04:27;27.67;;;12.90;;
20166;SDS011;10243;49.118;8.508;2022-11-13T13:08:03;18.47;;;12.57;;
20166;SDS011;10243;49.118;8.508;2022-11-13T13:11:42;16.87;;;11.83;;
20166;SDS011;10243;49.118;8.508;2022-11-13T13:15:21;17.83;;;12.43;;
20166;SDS011;10243;49.118;8.508;2022-11-13T13:18:47;16.10;;;12.20;;
20166;SDS011;10243;49.118;8.508;2022-11-13T13:22:08;18.43;;;12.70;;
20166;SDS011;10243;49.118;8.508;2022-11-13T13:25:31;19.50;;;13.80;;
20166;SDS011;10243;49.118;8.508;2022-11-13T13:28:54;18.40;;;13.50;;
20166;SDS011;10243;49.118;8.508;2022-11-13T13:32:15;20.63;;;13.83;;
20166;SDS011;10243;49.118;8.508;2022-11-13T13:35:42;16.93;;;13.30;;
20166;SDS011;10243;49.118;8.508;2022-11-13T13:39:17;17.53;;;13.23;;
20166;SDS011;10243;49.118;8.508;2022-11-13T13:42:48;19.50;;;14.30;;
20166;SDS011;10243;49.118;8.508;2022-11-13T13:46:23;21.43;;;14.00;;
20166;SDS011;10243;49.118;8.508;2022-11-13T13:49:45;19.03;;;13.17;;
20166;SDS011;10243;49.118;8.508;2022-11-13T13:53:06;21.33;;;13.93;;
20166;SDS011;10243;49.118;8.508;2022-11-13T13:56:30;18.43;;;13.13;;
20166;SDS011;10243;49.118;8.508;2022-11-13T13:59:51;17.57;;;12.43;;
20166;SDS011;10243;49.118;8.508;2022-11-13T14:03:17;19.20;;;12.87;;
20166;SDS011;10243;49.118;8.508;2022-11-13T14:06:46;19.03;;;13.20;;
20166;SDS011;10243;49.118;8.508;2022-11-13T14:10:12;24.40;;;13.13;;
20166;SDS011;10243;49.118;8.508;2022-11-13T14:13:34;23.47;;;13.87;;
20166;SDS011;10243;49.118;8.508;2022-11-13T14:16:56;19.03;;;13.03;;
20166;SDS011;10243;49.118;8.508;2022-11-13T14:20:19;19.53;;;13.33;;
20166;SDS011;10243;49.118;8.508;2022-11-13T14:23:42;22.63;;;14.13;;
20166;SDS011;10243;49.118;8.508;2022-11-13T14:27:04;23.10;;;13.77;;
20166;SDS011;10243;49.118;8.508;2022-11-13T14:30:27;23.43;;;13.23;;
20166;SDS011;10243;49.118;8.508;2022-11-13T14:33:48;19.63;;;13.87;;
20166;SDS011;10243;49.118;8.508;2022-11-13T14:37:15;22.80;;;13.97;;
20166;SDS011;10243;49.118;8.508;2022-11-13T14:40:40;23.87;;;15.40;;
20166;SDS011;10243;49.118;8.508;2022-11-13T14:44:08;24.63;;;14.63;;
20166;SDS011;10243;49.118;8.508;2022-11-13T14:47:29;23.43;;;14.87;;
20166;SDS011;10243;49.118;8.508;2022-11-13T14:50:55;24.10;;;15.90;;
20166;SDS011;10243;49.118;8.508;2022-11-13T14:54:27;27.23;;;16.03;;
20166;SDS011;10243;49.118;8.508;2022-11-13T14:57:50;29.53;;;17.80;;
20166;SDS011;10243;49.118;8.508;2022-11-13T15:01:11;29.53;;;16.80;;
20166;SDS011;10243;49.118;8.508;2022-11-13T15:04:34;34.40;;;18.93;;
20166;SDS011;10243;49.118;8.508;2022-11-13T15:07:54;42.23;;;21.57;;
20166;SDS011;10243;49.118;8.508;2022-11-13T15:11:18;43.00;;;22.97;;
20166;SDS011;10243;49.118;8.508;2022-11-13T15:14:40;45.83;;;23.03;;
20166;SDS011;10243;49.118;8.508;2022-11-13T15:18:00;47.67;;;23.70;;
20166;SDS011;10243;49.118;8.508;2022-11-13T15:21:21;42.70;;;23.67;;
20166;SDS011;10243;49.118;8.508;2022-11-13T15:24:42;44.10;;;22.73;;
20166;SDS011;10243;49.118;8.508;2022-11-13T15:28:04;39.47;;;23.07;;
20166;SDS011;10243;49.118;8.508;2022-11-13T15:31:26;48.67;;;24.10;;
20166;SDS011;10243;49.118;8.508;2022-11-13T15:34:49;47.40;;;23.83;;
20166;SDS011;10243;49.118;8.508;2022-11-13T15:38:10;45.30;;;24.47;;
20166;SDS011;10243;49.118;8.508;2022-11-13T15:41:30;62.00;;;32.10;;
20166;SDS011;10243;49.118;8.508;2022-11-13T15:44:53;57.27;;;26.70;;
20166;SDS011;10243;49.118;8.508;2022-11-13T15:48:14;43.20;;;23.57;;
20166;SDS011;10243;49.118;8.508;2022-11-13T15:51:35;47.73;;;24.03;;
20166;SDS011;10243;49.118;8.508;2022-11-13T15:54:58;41.53;;;22.20;;
20166;SDS011;10243;49.118;8.508;2022-11-13T15:58:19;40.30;;;20.90;;
20166;SDS011;10243;49.118;8.508;2022-11-13T16:01:42;33.47;;;18.90;;
20166;SDS011;10243;49.118;8.508;2022-11-13T16:05:07;37.10;;;18.60;;
20166;SDS011;10243;49.118;8.508;2022-11-13T16:08:31;32.73;;;17.97;;
20166;SDS011;10243;49.118;8.508;2022-11-13T16:12:00;41.37;;;20.83;;
20166;SDS011;10243;49.118;8.508;2022-11-13T16:15:27;40.10;;;20.03;;
20166;SDS011;10243;49.118;8.508;2022-11-13T16:18:49;36.30;;;20.20;;
20166;SDS011;10243;49.118;8.508;2022-11-13T16:22:12;28.40;;;16.03;;
20166;SDS011;10243;49.118;8.508;2022-11-13T16:25:36;29.07;;;16.87;;
20166;SDS011;10243;49.118;8.508;2022-11-13T16:28:57;32.47;;;17.50;;
20166;SDS011;10243;49.118;8.508;2022-11-13T16:32:19;36.30;;;19.73;;
20166;SDS011;10243;49.118;8.508;2022-11-13T16:35:41;40.73;;;18.77;;
20166;SDS011;10243;49.118;8.508;2022-11-13T16:39:01;44.50;;;20.93;;
20166;SDS011;10243;49.118;8.508;2022-11-13T16:42:22;29.53;;;17.37;;
20166;SDS011;10243;49.118;8.508;2022-11-13T16:45:42;35.77;;;19.50;;
20166;SDS011;10243;49.118;8.508;2022-11-13T16:49:03;36.37;;;18.63;;
20166;SDS011;10243;49.118;8.508;2022-11-13T16:52:25;29.93;;;16.23;;
20166;SDS011;10243;49.118;8.508;2022-11-13T16:55:45;21.73;;;13.07;;
20166;SDS011;10243;49.118;8.508;2022-11-13T16:59:07;24.73;;;14.07;;
20166;SDS011;10243;49.118;8.508;2022-11-13T17:02:29;31.80;;;17.17;;
20166;SDS011;10243;49.118;8.508;2022-11-13T17:05:50;36.80;;;18.63;;
20166;SDS011;10243;49.118;8.508;2022-11-13T17:09:12;91.60;;;16.50;;
20166;SDS011;10243;49.118;8.508;2022-11-13T17:12:33;16.47;;;11.10;;
20166;SDS011;10243;49.118;8.508;2022-11-13T17:15:54;28.47;;;15.77;;
20166;SDS011;10243;49.118;8.508;2022-11-13T17:19:18;37.60;;;18.33;;
20166;SDS011;10243;49.118;8.508;2022-11-13T17:22:39;22.00;;;13.97;;
20166;SDS011;10243;49.118;8.508;2022-11-13T17:26:07;23.27;;;12.13;;
20166;SDS011;10243;49.118;8.508;2022-11-13T17:29:28;48.40;;;20.07;;
20166;SDS011;10243;49.118;8.508;2022-11-13T17:32:48;38.27;;;19.00;;
20166;SDS011;10243;49.118;8.508;2022-11-13T17:36:09;39.87;;;19.23;;
20166;SDS011;10243;49.118;8.508;2022-11-13T17:39:29;37.13;;;20.63;;
20166;SDS011;10243;49.118;8.508;2022-11-13T17:42:51;47.30;;;25.50;;
20166;SDS011;10243;49.118;8.508;2022-11-13T17:46:12;88.63;;;45.37;;
20166;SDS011;10243;49.118;8.508;2022-11-13T17:49:34;87.83;;;43.97;;
20166;SDS011;10243;49.118;8.508;2022-11-13T17:52:54;73.23;;;35.40;;
20166;SDS011;10243;49.118;8.508;2022-11-13T17:56:15;69.87;;;37.63;;
20166;SDS011;10243;49.118;8.508;2022-11-13T17:59:39;64.90;;;30.27;;
20166;SDS011;10243;49.118;8.508;2022-11-13T18:02:59;51.40;;;26.07;;
20166;SDS011;10243;49.118;8.508;2022-11-13T18:06:20;63.67;;;31.80;;
20166;SDS011;10243;49.118;8.508;2022-11-13T18:09:41;81.37;;;39.07;;
20166;SDS011;10243;49.118;8.508;2022-11-13T18:13:01;95.90;;;49.07;;
20166;SDS011;10243;49.118;8.508;2022-11-13T18:16:24;32.53;;;18.27;;
20166;SDS011;10243;49.118;8.508;2022-11-13T18:19:49;51.27;;;24.47;;
20166;SDS011;10243;49.118;8.508;2022-11-13T18:23:10;79.17;;;39.57;;
20166;SDS011;10243;49.118;8.508;2022-11-13T18:26:31;65.93;;;32.17;;
20166;SDS011;10243;49.118;8.508;2022-11-13T18:29:52;76.60;;;37.70;;
20166;SDS011;10243;49.118;8.508;2022-11-13T18:33:13;69.13;;;35.57;;
20166;SDS011;10243;49.118;8.508;2022-11-13T18:36:34;48.90;;;26.47;;
20166;SDS011;10243;49.118;8.508;2022-11-13T18:39:54;44.07;;;25.40;;
20166;SDS011;10243;49.118;8.508;2022-11-13T18:43:16;50.27;;;27.30;;
20166;SDS011;10243;49.118;8.508;2022-11-13T18:46:37;55.43;;;26.93;;
20166;SDS011;10243;49.118;8.508;2022-11-13T18:49:59;49.90;;;25.63;;
20166;SDS011;10243;49.118;8.508;2022-11-13T18:53:20;93.50;;;30.73;;
20166;SDS011;10243;49.118;8.508;2022-11-13T18:56:40;116.83;;;27.13;;
20166;SDS011;10243;49.118;8.508;2022-11-13T19:00:01;79.50;;;25.27;;
20166;SDS011;10243;49.118;8.508;2022-11-13T19:03:21;167.57;;;27.03;;
20166;SDS011;10243;49.118;8.508;2022-11-13T19:06:44;256.20;;;27.77;;
20166;SDS011;10243;49.118;8.508;2022-11-13T19:10:04;237.93;;;26.37;;
20166;SDS011;10243;49.118;8.508;2022-11-13T19:13:25;282.77;;;30.40;;
20166;SDS011;10243;49.118;8.508;2022-11-13T19:16:46;261.67;;;30.07;;
20166;SDS011;10243;49.118;8.508;2022-11-13T19:20:07;86.93;;;24.57;;
20166;SDS011;10243;49.118;8.508;2022-11-13T19:23:30;176.90;;;30.50;;
20166;SDS011;10243;49.118;8.508;2022-11-13T19:26:50;121.07;;;25.70;;
20166;SDS011;10243;49.118;8.508;2022-11-13T19:30:10;237.93;;;31.13;;
20166;SDS011;10243;49.118;8.508;2022-11-13T19:33:31;215.90;;;30.80;;
20166;SDS011;10243;49.118;8.508;2022-11-13T19:36:51;244.07;;;42.00;;
20166;SDS011;10243;49.118;8.508;2022-11-13T19:40:13;305.57;;;45.93;;
20166;SDS011;10243;49.118;8.508;2022-11-13T19:43:35;198.80;;;35.50;;
20166;SDS011;10243;49.118;8.508;2022-11-13T19:46:56;293.37;;;54.13;;
20166;SDS011;10243;49.118;8.508;2022-11-13T19:50:17;290.13;;;36.93;;
20166;SDS011;10243;49.118;8.508;2022-11-13T19:53:38;207.23;;;34.83;;